Time;durP1;ratioP1;P1;durP2;ratioP2;P2;SDS_P1;SDS_P2;PMS_P1;PMS_P2;Temp;Humidity;BMP_temperature;BMP_pressure;BME280_temperature;BME280_humidity;BME280_pressure;Samples;Min_cycle;Max_cycle;Signal;HPM_P1;HPM_P2
2021/09/27 00:01:38;;;;;;;31.95;23.23;;;15.00;99.90;;;;;;4992544;28;20604;-72
2021/09/27 00:04:04;;;;;;;33.78;23.10;;;15.10;99.90;;;;;;5011693;28;20070;-71
2021/09/27 00:06:30;;;;;;;35.05;24.27;;;15.10;99.90;;;;;;5012018;28;20037;-72
2021/09/27 00:08:55;;;;;;;35.45;26.27;;;15.10;99.90;;;;;;5012236;28;20574;-72
2021/09/27 00:11:23;;;;;;;32.63;24.25;;;15.10;99.90;;;;;;5011709;28;20042;-72
2021/09/27 00:13:53;;;;;;;39.70;23.58;;;15.20;99.90;;;;;;4996759;28;20036;-71
2021/09/27 00:16:20;;;;;;;29.77;23.08;;;15.10;99.90;;;;;;4993474;28;20045;-71
2021/09/27 00:18:46;;;;;;;28.48;20.52;;;15.10;99.90;;;;;;4993263;28;20431;-71
2021/09/27 00:21:22;;;;;;;29.52;22.70;;;15.00;99.90;;;;;;4978504;28;20078;-71
2021/09/27 00:23:48;;;;;;;33.85;23.52;;;15.10;99.90;;;;;;4973886;28;20073;-71
2021/09/27 00:26:14;;;;;;;34.83;24.83;;;15.10;99.90;;;;;;4972991;28;20031;-71
2021/09/27 00:28:40;;;;;;;31.50;22.77;;;15.00;99.90;;;;;;4973613;28;20027;-71
2021/09/27 00:31:06;;;;;;;34.38;23.27;;;15.00;99.90;;;;;;4973491;28;20094;-71
2021/09/27 00:33:32;;;;;;;34.88;26.33;;;15.00;99.90;;;;;;4973551;28;20437;-72
2021/09/27 00:35:58;;;;;;;29.02;22.35;;;14.90;99.90;;;;;;4972503;28;20069;-71
2021/09/27 00:38:24;;;;;;;29.90;23.05;;;14.80;99.90;;;;;;4973337;28;20745;-72
2021/09/27 00:40:57;;;;;;;33.45;22.38;;;14.90;99.90;;;;;;4973607;28;20027;-72
2021/09/27 00:43:23;;;;;;;31.90;24.70;;;14.90;99.90;;;;;;4973400;28;20113;-72
2021/09/27 00:45:53;;;;;;;34.40;24.13;;;14.80;99.90;;;;;;4972221;28;20576;-72
2021/09/27 00:48:19;;;;;;;30.85;22.45;;;14.90;99.90;;;;;;4971308;28;20050;-72
2021/09/27 00:50:52;;;;;;;35.35;23.67;;;14.70;99.90;;;;;;4983597;28;20101;-72
2021/09/27 00:53:32;;;;;;;33.53;23.80;;;14.70;99.90;;;;;;4991608;28;20030;-72
2021/09/27 00:55:59;;;;;;;38.13;26.55;;;14.70;99.90;;;;;;4991512;28;20480;-71
2021/09/27 00:58:26;;;;;;;35.90;25.80;;;14.70;99.90;;;;;;4992490;28;20468;-71
2021/09/27 01:00:52;;;;;;;44.03;26.45;;;14.70;99.90;;;;;;4992588;28;20058;-71
2021/09/27 01:03:21;;;;;;;36.90;25.52;;;14.70;99.90;;;;;;4992558;28;20033;-71
2021/09/27 01:06:09;;;;;;;36.20;25.15;;;14.60;99.90;;;;;;4991527;28;20018;-72
2021/09/27 01:08:56;;;;;;;42.47;26.67;;;14.50;99.90;;;;;;4992235;28;20030;-71
2021/09/27 01:11:30;;;;;;;35.28;24.58;;;14.60;99.90;;;;;;4991783;28;20027;-72
2021/09/27 01:14:29;;;;;;;36.58;24.13;;;14.60;99.90;;;;;;4990665;28;20026;-71
2021/09/27 01:17:49;;;;;;;41.28;24.73;;;14.50;99.90;;;;;;4992028;28;20105;-72
2021/09/27 01:20:32;;;;;;;40.38;26.30;;;14.50;99.90;;;;;;4963403;28;20027;-72
2021/09/27 01:23:03;;;;;;;39.95;25.67;;;14.50;99.90;;;;;;4972518;28;20022;-72
2021/09/27 01:26:11;;;;;;;38.90;25.55;;;14.50;99.90;;;;;;4972262;28;20031;-71
2021/09/27 01:28:59;;;;;;;40.67;24.60;;;14.50;99.90;;;;;;4971647;28;20035;-71
2021/09/27 01:31:43;;;;;;;44.67;26.20;;;14.50;99.90;;;;;;4972497;28;20408;-72
2021/09/27 01:34:22;;;;;;;37.92;25.75;;;14.50;99.90;;;;;;4972525;28;20105;-72
2021/09/27 01:36:57;;;;;;;39.10;27.15;;;14.50;99.90;;;;;;4972149;28;20041;-72
2021/09/27 01:39:49;;;;;;;36.28;24.73;;;14.50;99.90;;;;;;4972738;28;20508;-72
2021/09/27 01:42:25;;;;;;;40.67;24.83;;;14.50;99.90;;;;;;4973000;28;20019;-72
2021/09/27 01:44:54;;;;;;;43.78;25.75;;;14.50;99.90;;;;;;4972057;28;20031;-72
2021/09/27 01:47:36;;;;;;;40.75;27.42;;;14.50;99.90;;;;;;4972622;28;20545;-72
2021/09/27 01:50:08;;;;;;;38.60;25.73;;;14.60;99.90;;;;;;4977566;28;20038;-72
2021/09/27 01:52:56;;;;;;;41.22;24.75;;;14.60;99.90;;;;;;4991804;28;20038;-72
2021/09/27 01:55:30;;;;;;;33.17;23.27;;;14.40;99.90;;;;;;4991184;28;20041;-74
2021/09/27 01:58:27;;;;;;;37.70;24.00;;;14.40;99.90;;;;;;4991954;28;20035;-72
2021/09/27 02:01:02;;;;;;;35.53;24.92;;;14.40;99.90;;;;;;4991425;28;20043;-72
2021/09/27 02:03:39;;;;;;;40.15;24.83;;;14.40;99.90;;;;;;4977518;28;20019;-71
2021/09/27 02:06:31;;;;;;;41.20;25.05;;;14.40;99.90;;;;;;4971591;28;20035;-72
2021/09/27 02:09:21;;;;;;;35.73;24.73;;;14.30;99.90;;;;;;4972139;28;20030;-71
2021/09/27 02:11:56;;;;;;;42.95;25.73;;;14.20;99.90;;;;;;4972573;28;20508;-72
2021/09/27 02:14:56;;;;;;;46.47;27.83;;;14.20;99.90;;;;;;4972028;28;20177;-72
2021/09/27 02:17:52;;;;;;;47.80;27.52;;;14.20;99.90;;;;;;4972141;28;20023;-71
2021/09/27 02:20:26;;;;;;;45.92;27.35;;;14.10;99.90;;;;;;4971874;28;20468;-73
2021/09/27 02:23:01;;;;;;;46.13;26.45;;;14.10;99.90;;;;;;4972143;28;20058;-73
2021/09/27 02:25:35;;;;;;;43.75;26.02;;;13.90;99.90;;;;;;4974669;28;20019;-71
2021/09/27 02:28:07;;;;;;;44.30;26.08;;;13.90;99.90;;;;;;4975603;28;20038;-72
2021/09/27 02:30:40;;;;;;;;;;;13.80;99.90;;;;;;4975765;28;20565;-71
2021/09/27 02:33:12;;;;;;;51.60;28.17;;;13.80;99.90;;;;;;4990444;28;19925;-71
2021/09/27 02:36:16;;;;;;;39.60;25.35;;;13.90;99.90;;;;;;4993556;28;20077;-71
2021/09/27 02:39:14;;;;;;;44.00;26.67;;;13.80;99.90;;;;;;4993722;28;20030;-71
2021/09/27 02:42:15;;;;;;;49.83;28.60;;;13.70;99.90;;;;;;4992240;28;20513;-71
2021/09/27 02:44:41;;;;;;;52.35;27.77;;;13.70;99.90;;;;;;4991764;28;20042;-71
2021/09/27 02:47:11;;;;;;;46.33;28.73;;;13.70;99.90;;;;;;4994758;28;20535;-71
2021/09/27 02:49:44;;;;;;;47.72;27.85;;;13.70;99.90;;;;;;4994849;28;20085;-70
2021/09/27 02:52:16;;;;;;;47.53;28.27;;;13.70;99.90;;;;;;4994598;28;20026;-71
2021/09/27 02:54:48;;;;;;;44.78;27.08;;;13.60;99.90;;;;;;4993964;28;20393;-71
2021/09/27 02:57:22;;;;;;;48.75;27.85;;;13.60;99.90;;;;;;4994660;28;20088;-72
2021/09/27 02:59:57;;;;;;;46.55;26.17;;;13.60;99.90;;;;;;4994711;28;20026;-72
2021/09/27 03:03:00;;;;;;;44.40;26.17;;;13.60;99.90;;;;;;4994645;28;20022;-71
2021/09/27 03:05:37;;;;;;;49.50;25.70;;;13.50;99.90;;;;;;4993823;28;20037;-71
2021/09/27 03:08:34;;;;;;;44.15;25.27;;;13.40;99.90;;;;;;4994398;28;20022;-72
2021/09/27 03:11:43;;;;;;;41.45;25.63;;;13.50;99.90;;;;;;4994708;28;20488;-72
2021/09/27 03:14:14;;;;;;;43.80;24.92;;;13.40;99.90;;;;;;4987402;28;20042;-72
2021/09/27 03:16:58;;;;;;;46.42;27.50;;;13.30;99.90;;;;;;4994257;28;20441;-71
2021/09/27 03:19:35;;;;;;;50.17;27.95;;;13.40;99.90;;;;;;4994633;28;20030;-71
2021/09/27 03:22:20;;;;;;;45.70;27.60;;;13.40;99.90;;;;;;4994262;28;20028;-71
2021/09/27 03:25:12;;;;;;;49.63;27.08;;;13.30;99.90;;;;;;4990252;28;20023;-71
2021/09/27 03:27:59;;;;;;;50.33;29.43;;;13.30;99.90;;;;;;4994228;28;20035;-70
2021/09/27 03:30:30;;;;;;;58.30;29.60;;;13.30;99.90;;;;;;4994063;28;20084;-72
2021/09/27 03:33:30;;;;;;;60.85;30.15;;;13.30;99.90;;;;;;4979200;28;20058;-70
2021/09/27 03:36:19;;;;;;;51.13;29.00;;;13.30;99.90;;;;;;4974884;28;20599;-71
2021/09/27 03:38:49;;;;;;;50.83;26.90;;;13.40;99.90;;;;;;4978033;28;20031;-71
2021/09/27 03:41:37;;;;;;;51.05;27.55;;;13.40;99.90;;;;;;4977938;28;20019;-71
2021/09/27 03:44:14;;;;;;;54.47;27.63;;;13.40;99.90;;;;;;4975365;28;20536;-72
2021/09/27 03:46:51;;;;;;;55.20;27.48;;;13.50;99.90;;;;;;4974375;28;20034;-72
2021/09/27 03:49:36;;;;;;;57.97;30.50;;;13.60;99.90;;;;;;4974487;28;20065;-71
2021/09/27 03:52:12;;;;;;;52.85;28.55;;;13.60;99.90;;;;;;4974124;28;20027;-71
2021/09/27 03:54:56;;;;;;;44.95;27.83;;;13.80;99.90;;;;;;4973530;28;20042;-71
2021/09/27 03:57:32;;;;;;;43.35;26.08;;;13.70;99.90;;;;;;4973850;28;20050;-71
2021/09/27 04:00:09;;;;;;;40.25;25.55;;;13.80;99.90;;;;;;4973987;28;20018;-72
2021/09/27 04:02:44;;;;;;;38.50;25.40;;;13.80;99.90;;;;;;4986193;28;20026;-72
2021/09/27 04:05:38;;;;;;;40.65;26.23;;;13.80;99.90;;;;;;4992895;28;20480;-71
2021/09/27 04:08:21;;;;;;;42.38;26.50;;;13.80;99.90;;;;;;4993131;28;20192;-71
2021/09/27 04:11:05;;;;;;;37.13;24.67;;;13.80;99.90;;;;;;4993083;28;20484;-71
2021/09/27 04:13:50;;;;;;;40.95;25.90;;;13.80;99.90;;;;;;4993250;28;20073;-71
2021/09/27 04:16:31;;;;;;;46.25;27.20;;;13.70;99.90;;;;;;4992431;28;20038;-72
2021/09/27 04:19:00;;;;;;;45.30;27.50;;;13.70;99.90;;;;;;4997008;28;20114;-72
2021/09/27 04:21:45;;;;;;;46.38;27.42;;;13.60;99.90;;;;;;4996794;28;20023;-71
2021/09/27 04:24:23;;;;;;;52.58;28.67;;;13.60;99.90;;;;;;4994840;28;20438;-72
2021/09/27 04:26:48;;;;;;;50.28;27.77;;;13.50;99.90;;;;;;4992766;28;20026;-71
2021/09/27 04:29:39;;;;;;;51.42;27.85;;;13.50;99.90;;;;;;4992822;28;20027;-71
2021/09/27 04:32:22;;;;;;;56.63;28.17;;;13.50;99.90;;;;;;4984756;28;20059;-71
2021/09/27 04:35:19;;;;;;;51.78;28.45;;;13.40;99.90;;;;;;4972519;28;20031;-71
2021/09/27 04:37:46;;;;;;;42.42;26.75;;;13.30;99.90;;;;;;4972892;28;20030;-71
2021/09/27 04:40:15;;;;;;;48.53;26.58;;;13.20;99.90;;;;;;4973352;28;20421;-71
2021/09/27 04:43:11;;;;;;;49.47;26.85;;;13.10;99.90;;;;;;4972374;28;20109;-72
2021/09/27 04:46:01;;;;;;;44.35;25.17;;;13.10;99.90;;;;;;4963046;28;20049;-73
2021/09/27 04:48:57;;;;;;;40.20;24.88;;;13.00;99.90;;;;;;4971495;28;20023;-75
2021/09/27 04:51:48;;;;;;;34.50;22.52;;;13.00;99.90;;;;;;4972498;28;20027;-76
2021/09/27 04:54:42;;;;;;;38.63;23.08;;;12.90;99.90;;;;;;4971803;28;20039;-76
2021/09/27 04:57:28;;;;;;;39.78;23.40;;;12.90;99.90;;;;;;4972301;28;20080;-75
2021/09/27 05:00:04;;;;;;;37.85;22.80;;;12.80;99.90;;;;;;4989880;22;21362;-81
2021/09/27 05:02:42;;;;;;;31.35;21.17;;;12.80;99.90;;;;;;4996152;28;20519;-80
2021/09/27 05:05:14;;;;;;;31.33;20.70;;;12.70;99.90;;;;;;5002306;28;20038;-81
2021/09/27 05:08:00;;;;;;;45.15;23.52;;;12.70;99.90;;;;;;5009068;28;20123;-80
2021/09/27 05:10:57;;;;;;;39.13;23.80;;;12.80;99.90;;;;;;4998336;28;20030;-80
2021/09/27 05:13:25;;;;;;;37.13;22.73;;;12.80;99.90;;;;;;4994540;28;20443;-79
2021/09/27 05:16:18;;;;;;;41.25;24.35;;;12.70;99.90;;;;;;4991272;28;20026;-80
2021/09/27 05:19:31;;;;;;;38.10;22.17;;;12.80;99.90;;;;;;4994213;28;20105;-80
2021/09/27 05:22:18;;;;;;;39.22;23.67;;;12.70;99.90;;;;;;4981129;28;20056;-79
2021/09/27 05:24:58;;;;;;;37.30;23.10;;;12.70;99.90;;;;;;4984219;28;20041;-81
2021/09/27 05:27:51;;;;;;;39.53;24.00;;;12.70;99.90;;;;;;4974587;28;20051;-79
2021/09/27 05:30:47;;;;;;;46.20;26.92;;;12.70;99.90;;;;;;4987129;28;20046;-81
2021/09/27 05:33:20;;;;;;;43.13;25.13;;;12.70;99.90;;;;;;5004090;28;20550;-79
2021/09/27 05:36:04;;;;;;;38.92;23.98;;;12.70;99.90;;;;;;4999162;28;20389;-79
2021/09/27 05:38:54;;;;;;;40.75;24.15;;;12.60;99.90;;;;;;5002902;28;20022;-80
2021/09/27 05:41:19;;;;;;;33.10;21.80;;;12.60;99.90;;;;;;5002533;28;20023;-80
2021/09/27 05:43:57;;;;;;;34.85;22.65;;;12.60;99.90;;;;;;5002344;28;20081;-81
2021/09/27 05:46:34;;;;;;;32.25;21.65;;;12.60;99.90;;;;;;5004625;28;20057;-80
2021/09/27 05:49:31;;;;;;;38.65;23.48;;;12.60;99.90;;;;;;5003381;28;20026;-80
2021/09/27 05:52:06;;;;;;;33.97;21.48;;;12.60;99.90;;;;;;5003672;28;20069;-80
2021/09/27 05:54:46;;;;;;;44.75;24.80;;;12.60;99.90;;;;;;5003900;28;20030;-80
2021/09/27 05:57:33;;;;;;;41.33;23.33;;;12.70;99.90;;;;;;5004393;28;20032;-81
2021/09/27 06:00:10;;;;;;;42.65;24.65;;;12.80;99.90;;;;;;5006373;28;20365;-80
2021/09/27 06:03:08;;;;;;;44.88;25.70;;;12.80;99.90;;;;;;4998840;28;20412;-81
2021/09/27 06:05:47;;;;;;;47.22;25.42;;;12.90;99.90;;;;;;4996862;28;20123;-80
2021/09/27 06:08:33;;;;;;;34.60;22.50;;;12.90;99.90;;;;;;4997269;28;20029;-80
2021/09/27 06:11:08;;;;;;;46.50;23.48;;;12.80;99.90;;;;;;4999046;28;20389;-81
2021/09/27 06:13:36;;;;;;;44.85;21.90;;;12.80;99.90;;;;;;4996632;28;20145;-79
2021/09/27 06:16:30;;;;;;;39.03;21.02;;;12.90;99.90;;;;;;4995703;28;20499;-81
2021/09/27 06:19:11;;;;;;;39.70;21.65;;;13.00;99.90;;;;;;4988543;28;20569;-81
2021/09/27 06:22:17;;;;;;;31.70;20.90;;;13.10;99.90;;;;;;4987433;28;20497;-81
2021/09/27 06:24:54;;;;;;;33.45;21.70;;;13.20;99.90;;;;;;4993379;28;20062;-82
2021/09/27 06:27:40;;;;;;;32.85;21.98;;;13.10;99.90;;;;;;4998048;28;20018;-80
2021/09/27 06:30:14;;;;;;;31.25;21.05;;;13.10;99.90;;;;;;4998199;28;20026;-81
2021/09/27 06:33:05;;;;;;;37.88;21.48;;;13.20;99.90;;;;;;4997280;28;20062;-81
2021/09/27 06:35:34;;;;;;;29.23;20.65;;;13.40;99.90;;;;;;4995684;28;20105;-81
2021/09/27 06:38:02;;;;;;;28.67;21.33;;;13.40;99.90;;;;;;4997119;28;20084;-80
2021/09/27 06:40:28;;;;;;;36.92;21.77;;;13.50;99.90;;;;;;5003272;28;20026;-81
2021/09/27 06:42:55;;;;;;;32.67;20.92;;;13.50;99.90;;;;;;5001168;28;20097;-78
2021/09/27 06:45:20;;;;;;;31.77;20.55;;;13.40;99.90;;;;;;4999356;28;20389;-80
2021/09/27 06:47:47;;;;;;;29.98;20.13;;;13.30;99.90;;;;;;4998390;28;20041;-80
2021/09/27 06:50:12;;;;;;;27.75;19.23;;;13.40;99.90;;;;;;4994875;28;20042;-77
2021/09/27 06:52:41;;;;;;;35.42;21.15;;;13.50;99.90;;;;;;4994694;28;20038;-78
2021/09/27 06:55:08;;;;;;;28.10;20.20;;;13.50;99.90;;;;;;4994322;28;20489;-79
2021/09/27 06:57:34;;;;;;;26.98;19.45;;;13.60;99.90;;;;;;4995769;28;20045;-79
2021/09/27 07:00:01;;;;;;;26.58;18.92;;;13.60;99.90;;;;;;4994039;28;20558;-78
2021/09/27 07:02:27;;;;;;;25.33;18.08;;;13.60;99.90;;;;;;4994490;28;20420;-76
2021/09/27 07:04:52;;;;;;;22.58;17.13;;;13.60;99.90;;;;;;4993620;28;20034;-78
2021/09/27 07:07:18;;;;;;;24.75;17.90;;;13.50;99.90;;;;;;4995305;28;20026;-80
2021/09/27 07:09:45;;;;;;;23.45;18.42;;;13.60;99.90;;;;;;4995061;28;20061;-79
2021/09/27 07:12:12;;;;;;;25.77;18.48;;;13.60;99.90;;;;;;4994842;28;20447;-78
2021/09/27 07:14:39;;;;;;;27.08;19.98;;;13.70;99.90;;;;;;4994188;28;20038;-80
2021/09/27 07:17:05;;;;;;;26.05;18.65;;;13.90;99.90;;;;;;4994877;28;20026;-78
2021/09/27 07:19:36;;;;;;;25.70;19.35;;;14.00;99.90;;;;;;4994121;28;20058;-78
2021/09/27 07:22:02;;;;;;;23.52;17.60;;;14.20;99.90;;;;;;4994729;28;20019;-78
2021/09/27 07:24:27;;;;;;;21.33;17.67;;;14.30;99.90;;;;;;4994348;28;20080;-80
2021/09/27 07:26:53;;;;;;;23.05;16.42;;;14.40;99.90;;;;;;4996156;28;20026;-80
2021/09/27 07:29:21;;;;;;;19.48;15.73;;;14.50;99.90;;;;;;4995055;28;20426;-79
2021/09/27 07:31:47;;;;;;;17.42;15.52;;;14.60;99.90;;;;;;4993924;28;20046;-79
2021/09/27 07:34:12;;;;;;;17.80;14.65;;;14.70;99.90;;;;;;4994131;28;20062;-79
2021/09/27 07:36:38;;;;;;;23.60;14.75;;;14.80;99.90;;;;;;4989314;28;20814;-80
2021/09/27 07:39:06;;;;;;;19.38;14.70;;;15.00;99.90;;;;;;4993574;28;20105;-79
2021/09/27 07:41:32;;;;;;;21.15;15.10;;;15.10;99.90;;;;;;4994670;28;20096;-81
2021/09/27 07:43:58;;;;;;;18.00;13.45;;;15.40;99.90;;;;;;4994768;28;20428;-82
2021/09/27 07:46:25;;;;;;;18.45;13.82;;;15.50;99.90;;;;;;4993783;28;20046;-81
2021/09/27 07:48:51;;;;;;;18.00;13.23;;;15.60;99.90;;;;;;4995839;28;20034;-80
2021/09/27 07:51:17;;;;;;;17.42;13.50;;;15.70;99.90;;;;;;4994599;28;20022;-80
2021/09/27 07:53:43;;;;;;;14.30;12.80;;;15.90;99.90;;;;;;5001985;28;20053;-81
2021/09/27 07:56:09;;;;;;;15.95;13.95;;;15.90;99.90;;;;;;5000946;28;20038;-80
2021/09/27 07:58:34;;;;;;;15.95;13.77;;;16.10;99.90;;;;;;4994866;28;20023;-80
2021/09/27 08:01:02;;;;;;;15.77;13.38;;;16.10;99.90;;;;;;4994609;28;20080;-80
2021/09/27 08:03:28;;;;;;;14.45;12.95;;;16.20;99.90;;;;;;4994928;28;20018;-80
2021/09/27 08:05:53;;;;;;;15.60;13.10;;;16.30;99.90;;;;;;4994771;28;20401;-81
2021/09/27 08:08:19;;;;;;;15.45;12.32;;;16.50;99.90;;;;;;4995054;28;20046;-81
2021/09/27 08:10:45;;;;;;;13.98;12.15;;;16.60;99.90;;;;;;4995223;28;20034;-81
2021/09/27 08:13:13;;;;;;;13.55;10.68;;;16.90;99.90;;;;;;4995121;28;20036;-79
2021/09/27 08:15:42;;;;;;;10.90;8.23;;;17.40;99.90;;;;;;4994375;28;20411;-80
2021/09/27 08:18:11;;;;;;;9.35;8.40;;;17.70;99.90;;;;;;4995685;28;20760;-79
2021/09/27 08:20:53;;;;;;;11.80;7.30;;;17.90;99.90;;;;;;4993592;28;20035;-79
2021/09/27 08:23:20;;;;;;;7.95;7.18;;;18.10;99.90;;;;;;4993870;28;20050;-79
2021/09/27 08:25:46;;;;;;;9.85;7.78;;;18.30;99.90;;;;;;4993748;28;20077;-80
2021/09/27 08:28:14;;;;;;;7.93;7.13;;;18.50;99.90;;;;;;4994197;28;20488;-80
2021/09/27 08:30:44;;;;;;;6.55;6.05;;;18.40;99.90;;;;;;4993013;28;20030;-80
2021/09/27 08:33:12;;;;;;;5.55;5.05;;;19.20;99.90;;;;;;4994037;28;20022;-80
2021/09/27 08:35:38;;;;;;;7.32;6.55;;;20.10;99.90;;;;;;4993167;28;20472;-80
2021/09/27 08:38:06;;;;;;;6.75;6.03;;;19.90;99.90;;;;;;4994157;28;20018;-79
2021/09/27 08:40:32;;;;;;;6.18;5.65;;;20.00;99.90;;;;;;4993408;28;20014;-81
2021/09/27 08:43:08;;;;;;;6.60;5.80;;;19.80;99.90;;;;;;4994347;28;20041;-79
2021/09/27 08:45:33;;;;;;;7.65;5.72;;;20.00;99.90;;;;;;4993295;28;20022;-79
2021/09/27 08:48:21;;;;;;;6.32;5.70;;;20.20;99.90;;;;;;4993891;28;20106;-79
2021/09/27 08:50:46;;;;;;;5.93;5.53;;;20.30;99.90;;;;;;4992367;28;20054;-80
2021/09/27 08:53:28;;;;;;;6.05;5.30;;;21.20;99.90;;;;;;4993082;28;20061;-80
2021/09/27 08:56:01;;;;;;;5.85;5.38;;;21.70;99.90;;;;;;4992939;28;20468;-79
2021/09/27 08:58:36;;;;;;;6.28;4.55;;;21.90;99.90;;;;;;4992678;28;20022;-79
2021/09/27 09:01:10;;;;;;;6.18;5.10;;;21.80;99.90;;;;;;4974200;28;20106;-79
2021/09/27 09:04:04;;;;;;;4.05;3.75;;;22.60;99.90;;;;;;4984338;28;20050;-81
2021/09/27 09:06:39;;;;;;;4.75;4.35;;;23.70;99.90;;;;;;4980465;28;20015;-80
2021/09/27 09:09:11;;;;;;;3.75;3.50;;;24.10;99.90;;;;;;4974479;28;20610;-80
2021/09/27 09:11:42;;;;;;;5.03;4.20;;;24.00;99.90;;;;;;4972983;28;20106;-79
2021/09/27 09:14:08;;;;;;;4.45;3.85;;;24.40;99.90;;;;;;4974498;28;20054;-81
2021/09/27 09:16:38;;;;;;;4.18;3.88;;;25.00;99.90;;;;;;4974084;28;20050;-80
2021/09/27 09:19:06;;;;;;;4.03;3.72;;;25.00;99.90;;;;;;4974704;28;20023;-79
2021/09/27 09:21:38;;;;;;;7.32;3.90;;;24.90;99.90;;;;;;4973816;28;20038;-79
2021/09/27 09:24:12;;;;;;;4.03;3.70;;;24.20;99.90;;;;;;4974019;28;20026;-79
2021/09/27 09:26:46;;;;;;;4.63;3.63;;;23.80;99.90;;;;;;4969874;28;20031;-79
2021/09/27 09:29:16;;;;;;;3.80;3.50;;;23.90;99.90;;;;;;4979062;28;20543;-79
2021/09/27 09:31:47;;;;;;;5.00;3.28;;;25.10;99.90;;;;;;4976823;28;20058;-79
2021/09/27 09:34:21;;;;;;;3.30;3.00;;;25.30;99.90;;;;;;4977291;28;20033;-79
2021/09/27 09:36:51;;;;;;;4.43;3.53;;;25.60;99.90;;;;;;4977503;28;20030;-79
2021/09/27 09:39:24;;;;;;;3.10;2.90;;;25.90;99.90;;;;;;4978360;28;20106;-78
2021/09/27 09:41:54;;;;;;;2.75;2.55;;;25.60;99.90;;;;;;4977541;28;20098;-78
2021/09/27 09:44:42;;;;;;;3.03;2.60;;;24.00;99.90;;;;;;4977858;28;20107;-79
2021/09/27 09:47:29;;;;;;;2.60;2.40;;;24.30;99.90;;;;;;4979217;28;20072;-80
2021/09/27 09:50:11;;;;;;;4.32;3.05;;;24.10;99.90;;;;;;4985304;28;20035;-79
2021/09/27 09:52:47;;;;;;;2.90;2.70;;;24.20;99.90;;;;;;4990403;28;20022;-81
2021/09/27 09:55:18;;;;;;;2.60;2.40;;;25.10;99.90;;;;;;4993526;28;20501;-80
2021/09/27 09:58:03;;;;;;;3.20;2.63;;;24.30;99.90;;;;;;4999690;28;20084;-81
2021/09/27 10:00:50;;;;;;;2.60;2.30;;;24.20;99.90;;;;;;5014078;28;20481;-80
2021/09/27 10:03:27;;;;;;;4.43;2.58;;;24.50;99.90;;;;;;5005913;28;20054;-81
2021/09/27 10:06:24;;;;;;;2.85;2.38;;;24.60;99.90;;;;;;5009539;28;20045;-81
2021/09/27 10:08:58;;;;;;;2.80;2.22;;;24.80;99.90;;;;;;5005044;28;20038;-80
2021/09/27 10:11:52;;;;;;;2.38;1.90;;;27.10;99.90;;;;;;5016450;28;20026;-80
2021/09/27 10:14:31;;;;;;;2.25;2.15;;;27.60;98.70;;;;;;5013485;28;20031;-81
2021/09/27 10:17:25;;;;;;;2.42;2.20;;;26.80;99.90;;;;;;5004139;28;20033;-80
2021/09/27 10:20:11;;;;;;;2.67;2.30;;;26.80;99.60;;;;;;4998154;28;20527;-80
2021/09/27 10:22:39;;;;;;;2.17;2.05;;;27.80;98.20;;;;;;5007109;28;20026;-81
2021/09/27 10:25:28;;;;;;;2.60;2.40;;;26.30;99.20;;;;;;5005411;28;20054;-81
2021/09/27 10:27:55;;;;;;;2.30;2.10;;;26.00;99.40;;;;;;4984527;28;20447;-80
2021/09/27 10:30:24;;;;;;;2.40;2.20;;;27.30;98.00;;;;;;4995919;28;20022;-80
2021/09/27 10:32:55;;;;;;;2.60;2.40;;;28.30;96.30;;;;;;4998037;28;20030;-80
2021/09/27 10:35:40;;;;;;;2.15;2.03;;;28.00;96.70;;;;;;4996996;28;20030;-80
2021/09/27 10:38:10;;;;;;;2.90;2.20;;;27.90;96.80;;;;;;4999510;28;20105;-80
2021/09/27 10:40:38;;;;;;;2.75;2.55;;;27.90;96.70;;;;;;5006142;28;20033;-81
2021/09/27 10:43:09;;;;;;;4.20;2.60;;;26.10;97.80;;;;;;5008862;28;20026;-80
2021/09/27 10:45:39;;;;;;;3.22;2.70;;;26.50;98.80;;;;;;5001293;28;20030;-80
2021/09/27 10:48:06;;;;;;;2.45;2.13;;;27.60;97.60;;;;;;5007522;28;20056;-80
2021/09/27 10:50:45;;;;;;;2.28;2.05;;;28.10;95.90;;;;;;5005055;28;20026;-82
2021/09/27 10:53:32;;;;;;;2.33;2.22;;;27.30;96.50;;;;;;4996867;28;20512;-78
2021/09/27 10:56:22;;;;;;;4.25;2.00;;;28.10;95.00;;;;;;4999047;28;20117;-81
2021/09/27 10:59:04;;;;;;;3.10;2.00;;;27.70;94.60;;;;;;5001358;28;20081;-83
2021/09/27 11:01:42;;;;;;;2.28;2.17;;;28.20;95.00;;;;;;5004660;28;20409;-82
2021/09/27 11:04:32;;;;;;;3.25;2.00;;;30.10;95.60;;;;;;4999210;28;20019;-84
2021/09/27 11:07:02;;;;;;;2.63;1.30;;;31.60;90.60;;;;;;4998455;28;20021;-81
2021/09/27 11:09:38;;;;;;;1.65;1.60;;;30.00;90.40;;;;;;4997694;28;20019;-83
2021/09/27 11:12:17;;;;;;;2.60;1.75;;;29.40;91.60;;;;;;5001178;28;20054;-83
2021/09/27 11:14:51;;;;;;;1.70;1.60;;;30.20;90.80;;;;;;5000360;28;20388;-81
2021/09/27 11:17:29;;;;;;;1.90;1.60;;;29.90;88.60;;;;;;5000092;28;20023;-81
2021/09/27 11:20:15;;;;;;;1.70;1.58;;;28.70;88.80;;;;;;5000519;28;20047;-81
2021/09/27 11:23:04;;;;;;;1.90;1.80;;;27.20;92.60;;;;;;4999987;28;20101;-82
2021/09/27 11:25:35;;;;;;;2.97;1.50;;;26.30;94.80;;;;;;5000582;28;20124;-83
2021/09/27 11:28:25;;;;;;;1.67;1.58;;;27.60;93.00;;;;;;5004752;28;20077;-82
2021/09/27 11:31:18;;;;;;;1.60;1.50;;;28.70;91.30;;;;;;4999520;28;20045;-81
2021/09/27 11:34:00;;;;;;;2.05;1.73;;;28.40;91.80;;;;;;4997171;28;20485;-82
2021/09/27 11:36:47;;;;;;;2.75;1.50;;;28.10;90.70;;;;;;4996471;28;20050;-82
2021/09/27 11:39:16;;;;;;;1.83;1.63;;;27.80;92.00;;;;;;4986519;28;20019;-82
2021/09/27 11:42:19;;;;;;;1.98;1.85;;;28.40;90.60;;;;;;5000176;28;20023;-81
2021/09/27 11:44:57;;;;;;;1.73;1.45;;;28.10;91.30;;;;;;4992132;28;20042;-82
2021/09/27 11:47:42;;;;;;;1.30;1.20;;;29.00;90.60;;;;;;4995890;28;20031;-83
2021/09/27 11:51:02;;;;;;;1.88;1.50;;;28.40;89.10;;;;;;4992819;28;20026;-82
2021/09/27 11:53:48;;;;;;;5.20;1.70;;;26.90;91.60;;;;;;4995102;28;20042;-83
2021/09/27 11:56:27;;;;;;;2.15;1.80;;;27.10;92.70;;;;;;4996630;28;20124;-82
2021/09/27 11:58:55;;;;;;;1.83;1.35;;;27.80;91.70;;;;;;4996556;28;20105;-82
2021/09/27 12:01:47;;;;;;;2.40;1.70;;;27.60;90.30;;;;;;4997087;28;20109;-82
2021/09/27 12:04:51;;;;;;;1.77;1.23;;;26.70;93.30;;;;;;4997904;28;20050;-83
2021/09/27 12:07:19;;;;;;;1.63;1.52;;;26.30;91.90;;;;;;4993547;28;20068;-83
2021/09/27 12:09:52;;;;;;;1.90;1.63;;;24.40;94.40;;;;;;4996731;28;20033;-83
2021/09/27 12:12:30;;;;;;;3.05;1.90;;;24.50;95.70;;;;;;4996979;28;20096;-83
2021/09/27 12:15:00;;;;;;;3.38;1.80;;;24.40;95.50;;;;;;4995241;28;20053;-83
2021/09/27 12:17:32;;;;;;;2.75;1.65;;;25.20;95.40;;;;;;4996033;28;20026;-83
2021/09/27 12:20:06;;;;;;;2.05;1.92;;;25.40;94.80;;;;;;4999168;28;20029;-83
2021/09/27 12:22:43;;;;;;;2.13;1.50;;;25.30;95.20;;;;;;5002756;28;20048;-83
2021/09/27 12:25:15;;;;;;;2.20;1.75;;;25.30;94.20;;;;;;4999210;28;20640;-81
2021/09/27 12:28:01;;;;;;;1.30;1.30;;;25.70;94.30;;;;;;5001704;28;20026;-82
2021/09/27 12:30:32;;;;;;;2.13;1.38;;;25.60;94.30;;;;;;5007847;28;20026;-80
2021/09/27 12:33:08;;;;;;;1.50;1.40;;;25.40;94.70;;;;;;5006059;28;20038;-82
2021/09/27 12:35:43;;;;;;;2.00;1.80;;;25.40;95.80;;;;;;5004186;28;20046;-83
2021/09/27 12:38:10;;;;;;;1.40;1.30;;;26.40;94.60;;;;;;4995898;28;20412;-83
2021/09/27 12:40:46;;;;;;;2.30;1.40;;;27.10;91.60;;;;;;4996603;28;20037;-83
2021/09/27 12:43:24;;;;;;;1.48;1.00;;;27.20;90.70;;;;;;5000088;28;20485;-83
2021/09/27 12:46:06;;;;;;;1.02;1.02;;;27.30;89.00;;;;;;4997404;28;20034;-83
2021/09/27 12:48:46;;;;;;;3.33;1.00;;;27.00;91.30;;;;;;4997206;28;20037;-82
2021/09/27 12:51:17;;;;;;;2.70;1.33;;;27.40;90.30;;;;;;4998321;28;20042;-81
2021/09/27 12:53:55;;;;;;;1.00;1.00;;;27.10;90.60;;;;;;4996873;28;20105;-84
2021/09/27 12:56:21;;;;;;;1.33;1.20;;;27.60;89.60;;;;;;4997404;28;20038;-83
2021/09/27 12:58:55;;;;;;;5.00;1.20;;;27.10;88.60;;;;;;4995002;28;20477;-84
2021/09/27 13:01:23;;;;;;;1.33;1.23;;;25.90;91.20;;;;;;4995158;28;20042;-82
2021/09/27 13:03:59;;;;;;;2.90;1.17;;;25.20;92.20;;;;;;4993717;28;20022;-82
2021/09/27 13:06:31;;;;;;;1.50;1.15;;;24.80;92.70;;;;;;4977392;28;20030;-82
2021/09/27 13:09:20;;;;;;;1.65;1.15;;;25.00;93.20;;;;;;4998089;28;20026;-81
2021/09/27 13:11:51;;;;;;;1.20;1.10;;;25.30;92.00;;;;;;5010316;28;20033;-81
2021/09/27 13:14:30;;;;;;;2.38;1.30;;;25.30;92.20;;;;;;4995803;28;20026;-81
2021/09/27 13:17:27;;;;;;;1.40;1.20;;;25.90;91.80;;;;;;4993691;28;20018;-82
2021/09/27 13:19:56;;;;;;;1.35;1.27;;;26.30;94.00;;;;;;4993611;28;20477;-81
2021/09/27 13:22:38;;;;;;;1.98;1.00;;;26.30;91.80;;;;;;4996933;28;20080;-81
2021/09/27 13:25:10;;;;;;;1.60;1.50;;;26.10;92.30;;;;;;4993074;28;20042;-81
2021/09/27 13:27:45;;;;;;;4.07;1.30;;;26.30;91.90;;;;;;4992554;28;20026;-83